createdAt,value
2022-09-17T00:01:52.165Z,0.67
2022-09-17T00:04:18.798Z,0.70
2022-09-17T00:06:45.359Z,0.57
2022-09-17T00:09:11.851Z,0.60
2022-09-17T00:11:40.164Z,0.60
2022-09-17T00:14:08.240Z,0.63
2022-09-17T00:16:38.861Z,0.50
2022-09-17T00:19:06.923Z,0.70
2022-09-17T00:21:33.392Z,0.40
2022-09-17T00:24:02.111Z,0.50
2022-09-17T00:26:29.796Z,0.50
2022-09-17T00:28:57.724Z,0.60
2022-09-17T00:31:24.960Z,0.80
2022-09-17T00:33:52.983Z,0.50
2022-09-17T00:36:20.323Z,0.60
2022-09-17T00:38:49.075Z,0.60
2022-09-17T00:41:15.586Z,0.50
2022-09-17T00:43:49.361Z,0.63
2022-09-17T00:46:29.407Z,0.70
2022-09-17T00:49:00.042Z,0.70
2022-09-17T00:51:30.865Z,0.57
2022-09-17T00:53:57.443Z,0.60
2022-09-17T00:56:26.991Z,0.60
2022-09-17T00:58:54.693Z,0.60
2022-09-17T01:01:21.577Z,0.67
2022-09-17T01:03:48.166Z,0.50
2022-09-17T01:06:32.074Z,0.53
2022-09-17T01:09:23.883Z,0.80
2022-09-17T01:12:08.414Z,0.60
2022-09-17T01:14:47.833Z,0.53
2022-09-17T01:17:26.267Z,0.70
2022-09-17T01:20:28.047Z,0.50
2022-09-17T01:23:11.875Z,0.70
2022-09-17T01:25:46.270Z,0.60
2022-09-17T01:28:38.457Z,0.83
2022-09-17T01:31:18.254Z,0.50
2022-09-17T01:33:53.241Z,0.70
2022-09-17T01:36:38.781Z,0.73
2022-09-17T01:39:12.059Z,0.50
2022-09-17T01:41:43.477Z,0.70
2022-09-17T01:44:15.944Z,0.70
2022-09-17T01:46:47.878Z,0.47
2022-09-17T01:49:16.136Z,0.70
2022-09-17T01:51:46.658Z,0.90
2022-09-17T01:54:18.002Z,0.53
2022-09-17T01:56:49.406Z,0.90
2022-09-17T01:59:20.118Z,0.70
2022-09-17T02:01:52.227Z,0.70
2022-09-17T02:04:23.020Z,0.60
2022-09-17T02:06:56.697Z,0.53
2022-09-17T02:09:27.581Z,0.60
2022-09-17T02:11:58.511Z,0.60
2022-09-17T02:14:28.626Z,0.50
2022-09-17T02:17:06.457Z,0.60
2022-09-17T02:19:37.109Z,0.47
2022-09-17T02:22:11.816Z,0.60
2022-09-17T02:24:44.302Z,0.70
2022-09-17T02:27:16.840Z,0.70
2022-09-17T02:29:44.620Z,1.00
2022-09-17T02:32:13.419Z,0.93
2022-09-17T02:34:40.349Z,0.53
2022-09-17T02:37:07.784Z,0.70
2022-09-17T02:39:34.416Z,0.90
2022-09-17T02:42:08.931Z,0.90
2022-09-17T02:44:42.717Z,0.80
2022-09-17T02:47:28.727Z,0.70
2022-09-17T02:50:10.520Z,1.00
2022-09-17T02:52:49.520Z,0.73
2022-09-17T02:55:20.008Z,0.70
2022-09-17T02:57:52.156Z,0.70
2022-09-17T03:00:20.697Z,1.00
2022-09-17T03:02:51.299Z,0.77
2022-09-17T03:05:20.366Z,0.60
2022-09-17T03:07:46.887Z,0.57
2022-09-17T03:10:13.398Z,0.80
2022-09-17T03:12:40.179Z,0.70
2022-09-17T03:15:07.755Z,0.80
2022-09-17T03:17:34.246Z,0.80
2022-09-17T03:20:02.419Z,0.50
2022-09-17T03:22:28.895Z,0.63
2022-09-17T03:24:55.383Z,0.70
2022-09-17T03:27:21.851Z,0.90
2022-09-17T03:29:48.335Z,0.80
2022-09-17T03:32:14.796Z,0.60
2022-09-17T03:34:41.324Z,0.60
2022-09-17T03:37:09.277Z,0.90
2022-09-17T03:39:35.747Z,0.60
2022-09-17T03:42:02.227Z,0.90
2022-09-17T03:44:28.715Z,0.70
2022-09-17T03:46:55.222Z,0.60
2022-09-17T03:49:21.816Z,0.70
2022-09-17T03:51:48.288Z,0.80
2022-09-17T03:54:16.181Z,0.80
2022-09-17T03:56:42.646Z,0.70
2022-09-17T03:59:09.179Z,0.87
2022-09-17T04:01:35.800Z,0.70
2022-09-17T04:04:02.889Z,0.73
2022-09-17T04:06:29.428Z,0.70
2022-09-17T04:08:55.901Z,0.80
2022-09-17T04:11:23.763Z,0.70
2022-09-17T04:13:50.214Z,0.63
2022-09-17T04:16:16.707Z,0.70
2022-09-17T04:18:43.226Z,0.77
2022-09-17T04:21:09.871Z,0.90
2022-09-17T04:23:36.315Z,0.80
2022-09-17T04:26:02.907Z,1.00
2022-09-17T04:28:30.787Z,0.90
2022-09-17T04:30:57.320Z,1.00
2022-09-17T04:33:23.855Z,0.70
2022-09-17T04:35:50.299Z,0.80
2022-09-17T04:38:16.793Z,1.00
2022-09-17T04:40:43.273Z,0.90
2022-09-17T04:43:09.827Z,1.10
2022-09-17T04:45:37.683Z,1.00
2022-09-17T04:48:04.729Z,0.77
2022-09-17T04:50:31.301Z,0.70
2022-09-17T04:52:58.072Z,1.00
2022-09-17T04:55:24.569Z,1.17
2022-09-17T04:57:52.775Z,0.93
2022-09-17T05:00:20.983Z,0.63
2022-09-17T05:02:50.699Z,0.87
2022-09-17T05:05:18.525Z,0.80
2022-09-17T05:07:45.408Z,0.90
2022-09-17T05:10:14.588Z,0.80
2022-09-17T05:12:41.056Z,0.97
2022-09-17T05:15:08.062Z,1.00
2022-09-17T05:17:34.576Z,0.83
2022-09-17T05:20:02.934Z,1.00
2022-09-17T05:22:29.383Z,1.03
2022-09-17T05:24:55.860Z,0.80
2022-09-17T05:27:22.328Z,0.80
2022-09-17T05:29:48.821Z,0.80
2022-09-17T05:32:15.342Z,0.80
2022-09-17T05:34:41.818Z,0.80
2022-09-17T05:37:10.729Z,0.93
2022-09-17T05:39:37.198Z,1.00
2022-09-17T05:42:03.842Z,0.90
2022-09-17T05:44:30.309Z,1.20
2022-09-17T05:46:56.868Z,0.90
2022-09-17T05:49:23.397Z,0.97
2022-09-17T05:51:50.407Z,1.10
2022-09-17T05:54:18.250Z,0.90
2022-09-17T05:56:44.730Z,0.90
2022-09-17T05:59:11.193Z,0.83
2022-09-17T06:01:37.722Z,1.00
2022-09-17T06:04:04.276Z,1.10
2022-09-17T06:06:31.140Z,0.83
2022-09-17T06:08:59.214Z,0.80
2022-09-17T06:11:27.097Z,1.13
2022-09-17T06:13:53.751Z,1.20
2022-09-17T06:16:20.946Z,1.20
2022-09-17T06:18:47.519Z,0.80
2022-09-17T06:21:13.978Z,1.03
2022-09-17T06:23:40.465Z,1.30
2022-09-17T06:26:06.927Z,0.87
2022-09-17T06:28:40.590Z,0.90
2022-09-17T06:31:09.696Z,0.80
2022-09-17T06:33:36.517Z,1.07
2022-09-17T06:36:08.543Z,0.70
2022-09-17T06:38:37.752Z,1.10
2022-09-17T06:41:04.819Z,0.90
2022-09-17T06:43:31.644Z,0.90
2022-09-17T06:46:01.033Z,1.20
2022-09-17T06:48:29.177Z,0.90
2022-09-17T06:50:56.051Z,1.17
2022-09-17T06:53:23.521Z,1.30
2022-09-17T06:55:50.736Z,1.20
2022-09-17T06:58:17.327Z,1.00
2022-09-17T07:00:43.921Z,1.20
2022-09-17T07:03:12.163Z,1.20
2022-09-17T07:05:38.635Z,1.13
2022-09-17T07:08:05.137Z,1.17
2022-09-17T07:10:32.118Z,1.10
2022-09-17T07:12:58.597Z,1.23
2022-09-17T07:15:25.205Z,1.40
2022-09-17T07:17:51.655Z,1.10
2022-09-17T07:20:19.494Z,1.57
2022-09-17T07:22:45.960Z,1.40
2022-09-17T07:25:13.280Z,1.53
2022-09-17T07:27:39.740Z,1.10
2022-09-17T07:30:07.423Z,1.23
2022-09-17T07:32:33.925Z,1.43
2022-09-17T07:35:00.401Z,1.40
2022-09-17T07:37:28.198Z,1.50
2022-09-17T07:39:54.691Z,1.63
2022-09-17T07:42:21.202Z,1.70
2022-09-17T07:44:47.855Z,1.33
2022-09-17T07:47:14.330Z,2.00
2022-09-17T07:49:40.798Z,1.50
2022-09-17T07:52:07.290Z,1.60
2022-09-17T07:54:35.772Z,1.70
2022-09-17T07:57:02.326Z,1.40
2022-09-17T07:59:28.803Z,1.40
2022-09-17T08:01:55.428Z,1.50
2022-09-17T08:04:22.293Z,1.80
2022-09-17T08:06:49.002Z,1.80
2022-09-17T08:09:16.418Z,2.53
2022-09-17T08:11:55.671Z,1.80
2022-09-17T08:14:25.776Z,1.73
2022-09-17T08:16:55.968Z,1.60
2022-09-17T08:19:22.418Z,1.90
2022-09-17T08:21:48.906Z,2.07
2022-09-17T08:24:15.362Z,1.80
2022-09-17T08:26:41.901Z,1.90
2022-09-17T08:29:09.776Z,1.80
2022-09-17T08:31:36.267Z,1.80
2022-09-17T08:34:07.672Z,2.20
2022-09-17T08:36:34.112Z,1.90
2022-09-17T08:39:00.869Z,1.70
2022-09-17T08:41:40.256Z,2.50
2022-09-17T08:44:21.001Z,2.10
2022-09-17T08:46:50.036Z,2.17
2022-09-17T08:49:28.541Z,2.30
2022-09-17T08:52:16.508Z,1.83
2022-09-17T08:54:50.223Z,2.27
2022-09-17T08:57:25.342Z,1.70
2022-09-17T09:00:00.524Z,1.60
2022-09-17T09:02:40.467Z,2.40
2022-09-17T09:05:11.347Z,2.00
2022-09-17T09:07:42.728Z,1.50
2022-09-17T09:10:16.769Z,1.70
2022-09-17T09:12:44.537Z,1.63
2022-09-17T09:15:23.569Z,1.70
2022-09-17T09:17:51.527Z,2.10
2022-09-17T09:20:26.023Z,1.93
2022-09-17T09:22:52.878Z,1.97
2022-09-17T09:25:23.192Z,1.60
2022-09-17T09:28:05.987Z,1.53
2022-09-17T09:30:46.734Z,1.40
2022-09-17T09:33:15.490Z,1.80
2022-09-17T09:35:43.015Z,1.53
2022-09-17T09:38:18.212Z,1.50
2022-09-17T09:40:48.558Z,1.33
2022-09-17T09:43:19.979Z,1.30
2022-09-17T09:46:02.590Z,1.57
2022-09-17T09:48:37.339Z,1.23
2022-09-17T09:51:17.897Z,1.27
2022-09-17T09:53:57.394Z,1.20
2022-09-17T09:56:38.579Z,1.40
2022-09-17T09:59:07.142Z,1.43
2022-09-17T10:01:38.645Z,1.53
2022-09-17T10:04:16.297Z,1.60
2022-09-17T10:06:42.920Z,1.43
2022-09-17T10:09:11.987Z,1.10
2022-09-17T10:11:38.632Z,1.60
2022-09-17T10:14:22.148Z,1.20
2022-09-17T10:16:50.645Z,1.23
2022-09-17T10:19:20.488Z,1.10
2022-09-17T10:21:46.986Z,1.40
2022-09-17T10:24:22.787Z,1.23
2022-09-17T10:26:50.146Z,1.20
2022-09-17T10:29:18.783Z,1.17
2022-09-17T10:31:50.613Z,1.10
2022-09-17T10:34:21.604Z,1.60
2022-09-17T10:36:48.379Z,1.50
2022-09-17T10:39:33.764Z,1.10
2022-09-17T10:42:01.814Z,0.90
2022-09-17T10:44:29.510Z,1.40
2022-09-17T10:47:05.169Z,1.00
2022-09-17T10:49:37.987Z,1.00
2022-09-17T10:52:06.991Z,1.47
2022-09-17T10:54:57.839Z,1.50
2022-09-17T10:57:37.029Z,1.00
2022-09-17T11:00:10.673Z,1.30
2022-09-17T11:03:06.708Z,1.13
2022-09-17T11:05:53.013Z,1.20
2022-09-17T11:08:26.032Z,0.90
2022-09-17T11:11:06.053Z,0.87
2022-09-17T11:13:40.206Z,0.97
2022-09-17T11:16:18.164Z,0.80
2022-09-17T11:18:55.826Z,0.93
2022-09-17T11:21:42.893Z,0.97
2022-09-17T11:24:51.421Z,0.97
2022-09-17T11:27:34.138Z,0.80
2022-09-17T11:30:08.149Z,1.10
2022-09-17T11:33:02.770Z,0.80
2022-09-17T11:35:35.050Z,0.80
2022-09-17T11:38:08.877Z,1.10
2022-09-17T11:40:40.139Z,0.80
2022-09-17T11:43:15.614Z,1.17
2022-09-17T11:45:53.501Z,1.03
2022-09-17T11:48:22.398Z,0.80
2022-09-17T11:50:55.771Z,0.90
2022-09-17T11:53:30.009Z,0.80
2022-09-17T11:55:59.821Z,1.07
2022-09-17T11:58:32.365Z,0.73
2022-09-17T12:01:04.234Z,0.70
2022-09-17T12:03:34.690Z,0.90
2022-09-17T12:06:08.018Z,0.90
2022-09-17T12:08:41.265Z,0.80
2022-09-17T12:11:13.279Z,0.80
2022-09-17T12:13:42.898Z,1.00
2022-09-17T12:16:15.304Z,0.83
2022-09-17T12:18:49.733Z,1.10
2022-09-17T12:21:22.722Z,0.87
2022-09-17T12:23:55.527Z,0.83
2022-09-17T12:26:34.395Z,1.00
2022-09-17T12:29:05.639Z,1.17
2022-09-17T12:31:40.960Z,0.80
2022-09-17T12:34:22.567Z,0.70
2022-09-17T12:36:55.413Z,0.83
2022-09-17T12:39:42.768Z,0.60
2022-09-17T12:42:21.800Z,0.70
2022-09-17T12:45:04.601Z,0.87
2022-09-17T12:48:17.711Z,0.80
2022-09-17T12:50:53.424Z,0.50
2022-09-17T12:53:29.048Z,0.60
2022-09-17T12:56:05.370Z,0.70
2022-09-17T12:58:47.096Z,0.50
2022-09-17T13:01:19.727Z,0.63
2022-09-17T13:03:50.445Z,0.70
2022-09-17T13:06:37.276Z,0.70
2022-09-17T13:09:34.428Z,0.73
2022-09-17T13:12:23.091Z,0.80
2022-09-17T13:15:24.760Z,0.80
2022-09-17T13:18:20.342Z,0.60
2022-09-17T13:20:58.057Z,0.60
2022-09-17T13:23:33.944Z,0.70
2022-09-17T13:26:02.587Z,0.70
2022-09-17T13:28:37.788Z,0.67
2022-09-17T13:31:04.789Z,0.60
2022-09-17T13:33:55.429Z,0.80
2022-09-17T13:36:52.583Z,0.43
2022-09-17T13:39:44.447Z,0.60
2022-09-17T13:42:19.343Z,0.60
2022-09-17T13:44:50.262Z,0.70
2022-09-17T13:47:27.121Z,0.70
2022-09-17T13:49:57.362Z,0.87
2022-09-17T13:52:36.205Z,0.60
2022-09-17T13:55:03.971Z,0.50
2022-09-17T13:57:33.614Z,0.60
2022-09-17T14:00:01.077Z,0.70
2022-09-17T14:02:35.169Z,0.40
2022-09-17T14:05:24.382Z,0.47
2022-09-17T14:07:52.165Z,0.50
2022-09-17T14:24:51.552Z,0.60
2022-09-17T14:27:42.561Z,0.30
2022-09-17T14:30:15.314Z,0.67
2022-09-17T14:32:47.707Z,0.40
2022-09-17T14:35:20.222Z,0.50
2022-09-17T14:37:51.184Z,0.50
2022-09-17T14:40:20.627Z,0.40
2022-09-17T14:42:51.132Z,0.60
2022-09-17T14:45:21.367Z,0.80
2022-09-17T14:47:47.848Z,0.63
2022-09-17T14:50:22.232Z,0.70
2022-09-17T14:52:49.479Z,0.83
2022-09-17T14:55:19.585Z,0.40
2022-09-17T14:57:48.879Z,0.40
2022-09-17T15:00:21.693Z,0.60
2022-09-17T15:02:51.013Z,0.60
2022-09-17T15:05:24.218Z,0.40
2022-09-17T15:07:50.702Z,0.53
2022-09-17T15:10:20.973Z,0.70
2022-09-17T15:12:48.894Z,0.50
2022-09-17T15:15:19.390Z,0.43
2022-09-17T15:17:46.783Z,0.40
2022-09-17T15:20:17.762Z,0.73
2022-09-17T15:22:48.685Z,0.50
2022-09-17T15:25:17.431Z,0.60
2022-09-17T15:27:46.831Z,0.70
2022-09-17T15:30:15.851Z,0.60
2022-09-17T15:32:48.641Z,0.47
2022-09-17T15:35:21.897Z,0.47
2022-09-17T15:38:18.589Z,0.50
2022-09-17T15:40:39.488Z,0.50
2022-09-17T15:43:16.898Z,0.67
2022-09-17T15:45:43.399Z,0.80
2022-09-17T15:48:22.329Z,0.40
2022-09-17T15:50:53.300Z,0.50
2022-09-17T15:53:23.979Z,0.50
2022-09-17T15:56:04.084Z,0.47
2022-09-17T15:58:37.630Z,0.70
2022-09-17T16:01:36.876Z,0.37
2022-09-17T16:04:19.204Z,0.40
2022-09-17T16:06:55.220Z,0.67
2022-09-17T16:09:44.666Z,0.70
2022-09-17T16:12:13.460Z,0.60
2022-09-17T16:14:50.838Z,0.70
2022-09-17T16:17:23.483Z,0.50
2022-09-17T16:19:49.974Z,0.40
2022-09-17T16:22:16.497Z,0.60
2022-09-17T16:24:43.019Z,0.60
2022-09-17T16:27:16.113Z,0.40
2022-09-17T16:29:44.014Z,0.60
2022-09-17T16:32:11.013Z,0.60
2022-09-17T16:34:37.553Z,0.40
2022-09-17T16:37:04.190Z,0.40
2022-09-17T16:39:30.695Z,0.50
2022-09-17T16:41:57.154Z,0.43
2022-09-17T16:44:23.637Z,0.60
2022-09-17T16:46:51.585Z,0.60
2022-09-17T16:49:18.234Z,0.50
2022-09-17T16:51:44.733Z,0.30
2022-09-17T16:54:11.252Z,0.20
2022-09-17T16:56:37.737Z,0.37
2022-09-17T16:59:04.247Z,0.40
2022-09-17T17:01:30.777Z,0.30
2022-09-17T17:03:58.746Z,0.50
2022-09-17T17:06:25.237Z,0.33
2022-09-17T17:08:51.958Z,0.40
2022-09-17T17:11:18.527Z,0.40
2022-09-17T17:13:45.452Z,0.40
2022-09-17T17:16:13.818Z,0.50
2022-09-17T17:18:42.432Z,0.50
2022-09-17T17:21:12.754Z,0.50
2022-09-17T17:23:39.232Z,0.90
2022-09-17T17:26:05.909Z,1.20
2022-09-17T17:28:32.881Z,1.40
2022-09-17T17:30:59.439Z,0.60
2022-09-17T17:33:25.995Z,0.50
2022-09-17T17:35:52.495Z,0.40
2022-09-17T17:38:20.749Z,0.30
2022-09-17T17:40:47.250Z,0.50
2022-09-17T17:43:14.094Z,0.40
2022-09-17T17:45:40.667Z,0.83
2022-09-17T17:48:07.125Z,0.50
2022-09-17T17:50:33.887Z,0.50
2022-09-17T17:53:00.382Z,0.80
2022-09-17T17:55:28.265Z,0.60
2022-09-17T17:58:00.222Z,0.43
2022-09-17T18:00:27.803Z,0.53
2022-09-17T18:02:54.312Z,0.60
2022-09-17T18:05:20.839Z,0.93
2022-09-17T18:07:47.373Z,0.53
2022-09-17T18:10:13.965Z,0.50
2022-09-17T18:12:41.860Z,0.43
2022-09-17T18:15:08.854Z,0.60
2022-09-17T18:17:35.352Z,0.40
2022-09-17T18:20:02.445Z,0.50
2022-09-17T18:22:28.935Z,0.40
2022-09-17T18:24:55.414Z,0.57
2022-09-17T18:27:21.874Z,0.50
2022-09-17T18:29:49.721Z,0.50
2022-09-17T18:32:16.194Z,0.50
2022-09-17T18:34:42.732Z,0.50
2022-09-17T18:37:09.674Z,0.30
2022-09-17T18:42:22.638Z,0.50
2022-09-17T18:44:50.489Z,0.40
2022-09-17T18:47:16.958Z,0.33
2022-09-17T18:49:43.472Z,0.60
2022-09-17T18:52:09.986Z,0.50
2022-09-17T18:54:36.509Z,0.43
2022-09-17T18:57:02.996Z,0.60
2022-09-17T18:59:29.489Z,0.80
2022-09-17T19:01:57.347Z,0.47
2022-09-17T19:04:23.901Z,0.53
2022-09-17T19:06:50.437Z,0.60
2022-09-17T19:09:16.913Z,0.50
2022-09-17T19:11:43.395Z,0.50
2022-09-17T19:14:09.935Z,0.60
2022-09-17T19:16:36.430Z,0.50
2022-09-17T19:19:04.286Z,0.67
2022-09-17T19:21:30.769Z,0.50
2022-09-17T19:23:57.247Z,0.80
2022-09-17T19:26:26.819Z,0.90
2022-09-17T19:28:54.240Z,0.70
2022-09-17T19:31:21.510Z,0.63
2022-09-17T19:33:48.262Z,0.50
2022-09-17T19:36:17.761Z,0.73
2022-09-17T19:38:45.083Z,0.40
2022-09-17T19:41:13.114Z,0.50
2022-09-17T19:43:40.094Z,0.70
2022-09-17T19:46:08.229Z,0.70
2022-09-17T19:48:35.041Z,0.40
2022-09-17T19:51:01.918Z,0.40
2022-09-17T19:53:31.226Z,0.50
2022-09-17T19:55:57.777Z,0.50
2022-09-17T19:58:24.444Z,0.50
2022-09-17T20:00:55.068Z,0.70
2022-09-17T20:03:21.562Z,0.80
2022-09-17T20:05:48.044Z,1.03
2022-09-17T20:08:14.571Z,0.50
2022-09-17T20:10:42.367Z,0.70
2022-09-17T20:13:08.817Z,0.50
2022-09-17T20:15:35.705Z,0.63
2022-09-17T20:18:02.742Z,0.80
2022-09-17T20:20:29.274Z,0.80
2022-09-17T20:22:56.078Z,0.57
2022-09-17T20:25:22.711Z,0.50
2022-09-17T20:27:50.577Z,0.57
2022-09-17T20:30:17.081Z,0.60
2022-09-17T20:32:43.556Z,0.67
2022-09-17T20:35:10.036Z,0.60
2022-09-17T20:38:32.918Z,0.60
2022-09-17T20:40:23.024Z,0.50
2022-09-17T20:42:50.903Z,0.40
2022-09-17T20:45:17.374Z,0.73
2022-09-17T20:47:43.846Z,0.63
2022-09-17T20:50:10.306Z,0.60
2022-09-17T20:52:36.776Z,0.60
2022-09-17T20:55:03.811Z,0.60
2022-09-17T20:57:30.482Z,0.50
2022-09-17T20:59:58.305Z,0.60
2022-09-17T21:02:24.789Z,0.60
2022-09-17T21:04:51.275Z,0.50
2022-09-17T21:07:17.781Z,0.60
2022-09-17T21:09:44.337Z,0.70
2022-09-17T21:12:11.316Z,0.50
2022-09-17T21:14:37.862Z,0.70
2022-09-17T21:17:05.932Z,0.87
2022-09-17T21:19:32.516Z,0.70
2022-09-17T21:21:59.024Z,0.60
2022-09-17T21:24:25.570Z,0.60
2022-09-17T21:26:52.072Z,0.60
2022-09-17T21:29:18.605Z,0.70
2022-09-17T21:31:45.167Z,0.60
2022-09-17T21:34:13.851Z,0.80
2022-09-17T21:36:41.904Z,0.50
2022-09-17T21:39:11.951Z,0.60
2022-09-17T21:41:42.328Z,0.80
2022-09-17T21:44:10.065Z,0.70
2022-09-17T21:46:36.919Z,0.60
2022-09-17T21:49:04.524Z,0.60
2022-09-17T21:51:34.587Z,0.60
2022-09-17T21:54:03.394Z,0.60
2022-09-17T21:56:30.656Z,0.67
2022-09-17T21:58:58.913Z,0.50
2022-09-17T22:01:28.172Z,0.57
2022-09-17T22:03:55.214Z,0.50
2022-09-17T22:06:23.461Z,0.63
2022-09-17T22:08:52.106Z,0.60
2022-09-17T22:11:20.173Z,0.67
2022-09-17T22:13:53.889Z,0.73
2022-09-17T22:16:22.082Z,0.67
2022-09-17T22:18:50.491Z,0.70
2022-09-17T22:21:18.924Z,0.70
2022-09-17T22:23:45.436Z,0.73
2022-09-17T22:26:13.425Z,0.80
2022-09-17T22:28:39.900Z,1.00
2022-09-17T22:31:08.482Z,0.80
2022-09-17T22:33:36.874Z,0.80
2022-09-17T22:36:05.567Z,0.90
2022-09-17T22:38:32.281Z,0.83
2022-09-17T22:41:03.372Z,0.73
2022-09-17T22:43:31.393Z,0.60
2022-09-17T22:45:58.023Z,0.50
2022-09-17T22:48:24.487Z,0.70
2022-09-17T22:50:51.033Z,0.87
2022-09-17T22:53:18.323Z,0.80
2022-09-17T22:55:52.697Z,0.60
2022-09-17T22:58:19.175Z,0.77
2022-09-17T23:00:47.003Z,0.53
2022-09-17T23:03:13.568Z,0.70
2022-09-17T23:05:40.073Z,0.70
2022-09-17T23:08:06.564Z,0.60
2022-09-17T23:10:35.187Z,0.70
2022-09-17T23:13:01.705Z,0.60
2022-09-17T23:15:28.169Z,0.90
2022-09-17T23:17:56.011Z,0.73
2022-09-17T23:20:22.494Z,1.00
2022-09-17T23:22:48.998Z,0.77
2022-09-17T23:25:15.775Z,0.83
2022-09-17T23:27:42.244Z,0.60
2022-09-17T23:30:10.290Z,0.80
2022-09-17T23:32:36.753Z,0.70
2022-09-17T23:35:05.429Z,0.70
2022-09-17T23:37:31.899Z,0.87
2022-09-17T23:39:58.505Z,0.70
2022-09-17T23:42:24.982Z,0.90
2022-09-17T23:44:51.441Z,0.87
2022-09-17T23:47:17.896Z,1.10
2022-09-17T23:49:44.382Z,0.80
2022-09-17T23:52:12.215Z,0.53
2022-09-17T23:54:38.681Z,0.70
2022-09-17T23:57:05.158Z,0.80
2022-09-17T23:59:31.621Z,0.70
